Time;durP1;ratioP1;P1;durP2;ratioP2;P2;SDS_P1;SDS_P2;PMS_P1;PMS_P2;Temp;Humidity;BMP_temperature;BMP_pressure;BME280_temperature;BME280_humidity;BME280_pressure;Samples;Min_cycle;Max_cycle;Signal;HPM_P1;HPM_P2
2023/03/16 00:00:41;;;;;;;2.17;1.20;;;;;;;;;;5113675;28;20040;-81
2023/03/16 00:03:07;;;;;;;3.72;1.40;;;;;;;;;;5114012;28;20169;-80
2023/03/16 00:05:33;;;;;;;1.35;1.00;;;;;;;;;;5113748;28;20039;-80
2023/03/16 00:07:58;;;;;;;4.00;0.90;;;;;;;;;;5114848;28;20061;-80
2023/03/16 00:10:26;;;;;;;1.10;0.90;;;;;;;;;;5114843;28;20023;-79
2023/03/16 00:12:55;;;;;;;0.98;0.80;;;;;;;;;;5096856;28;20027;-78
2023/03/16 00:15:21;;;;;;;1.42;0.90;;;;;;;;;;5080025;28;20027;-79
2023/03/16 00:17:47;;;;;;;1.25;0.90;;;;;;;;;;5113722;28;20029;-78
2023/03/16 00:20:17;;;;;;;1.65;1.10;;;;;;;;;;5113407;28;20036;-78
2023/03/16 00:22:42;;;;;;;1.63;1.00;;;;;;;;;;5113401;28;20023;-79
2023/03/16 00:25:08;;;;;;;1.63;1.00;;;;;;;;;;5079416;28;20116;-78
2023/03/16 00:27:34;;;;;;;1.77;0.98;;;;;;;;;;5112991;28;20077;-78
2023/03/16 00:30:02;;;;;;;0.70;0.68;;;;;;;;;;5112068;28;20027;-77
2023/03/16 00:32:32;;;;;;;1.77;0.85;;;;;;;;;;5080135;28;20036;-79
2023/03/16 00:34:57;;;;;;;1.40;0.90;;;;;;;;;;5113346;28;20361;-78
2023/03/16 00:37:24;;;;;;;1.27;1.08;;;;;;;;;;5114357;28;20035;-78
2023/03/16 00:39:50;;;;;;;0.98;0.85;;;;;;;;;;5095915;28;20051;-78
2023/03/16 00:42:16;;;;;;;3.38;1.10;;;;;;;;;;5096227;28;20349;-77
2023/03/16 00:44:41;;;;;;;1.13;0.90;;;;;;;;;;5096201;28;20049;-78
2023/03/16 00:47:07;;;;;;;1.77;1.20;;;;;;;;;;5113145;28;20028;-79
2023/03/16 00:49:33;;;;;;;4.38;1.13;;;;;;;;;;5113156;28;20035;-78
2023/03/16 00:52:05;;;;;;;2.08;0.75;;;;;;;;;;5112990;28;20036;-79
2023/03/16 00:54:34;;;;;;;1.42;0.90;;;;;;;;;;5113098;28;20024;-78
2023/03/16 00:56:59;;;;;;;1.13;1.00;;;;;;;;;;5080141;28;20060;-78
2023/03/16 00:59:25;;;;;;;1.33;1.10;;;;;;;;;;5112855;28;20032;-78
2023/03/16 01:01:54;;;;;;;1.58;0.98;;;;;;;;;;5081805;28;20038;-78
2023/03/16 01:04:19;;;;;;;1.30;0.80;;;;;;;;;;5099983;28;20035;-78
2023/03/16 01:06:45;;;;;;;1.23;0.93;;;;;;;;;;5117216;28;20035;-78
2023/03/16 01:09:11;;;;;;;1.10;0.90;;;;;;;;;;5116868;28;20084;-78
2023/03/16 01:11:36;;;;;;;1.42;1.17;;;;;;;;;;5100096;28;20948;-78
2023/03/16 01:14:02;;;;;;;2.03;1.10;;;;;;;;;;5100111;28;20038;-78
2023/03/16 01:16:28;;;;;;;3.25;1.17;;;;;;;;;;5100059;28;20027;-78
2023/03/16 01:18:53;;;;;;;3.05;1.10;;;;;;;;;;5099704;28;20425;-77
2023/03/16 01:21:20;;;;;;;1.73;1.02;;;;;;;;;;5116780;28;20023;-77
2023/03/16 01:23:45;;;;;;;2.70;1.40;;;;;;;;;;5099667;28;20429;-78
2023/03/16 01:26:11;;;;;;;2.13;1.50;;;;;;;;;;5099586;28;20023;-78
2023/03/16 01:28:37;;;;;;;3.78;1.77;;;;;;;;;;5116796;28;20420;-78
2023/03/16 01:31:08;;;;;;;1.88;1.50;;;;;;;;;;5099679;28;20039;-77
2023/03/16 01:33:33;;;;;;;2.85;1.30;;;;;;;;;;5099674;28;20016;-79
2023/03/16 01:36:01;;;;;;;1.27;1.00;;;;;;;;;;5116547;28;20468;-78
2023/03/16 01:38:26;;;;;;;2.72;1.15;;;;;;;;;;5116026;28;20027;-79
2023/03/16 01:40:52;;;;;;;1.90;1.17;;;;;;;;;;5099387;28;20130;-77
2023/03/16 01:43:18;;;;;;;2.40;1.42;;;;;;;;;;5099589;28;20028;-79
2023/03/16 01:46:05;;;;;;;3.72;1.10;;;;;;;;;;5082422;28;20361;-78
2023/03/16 01:48:41;;;;;;;2.17;1.23;;;;;;;;;;5117550;28;20035;-78
2023/03/16 01:51:29;;;;;;;2.22;0.98;;;;;;;;;;5099879;28;20034;-78
2023/03/16 01:53:58;;;;;;;1.30;0.98;;;;;;;;;;5115584;28;20048;-78
2023/03/16 01:56:33;;;;;;;4.85;0.90;;;;;;;;;;5099355;28;20032;-79
2023/03/16 01:58:58;;;;;;;2.15;1.27;;;;;;;;;;5100060;28;20034;-77
2023/03/16 02:01:27;;;;;;;1.40;1.20;;;;;;;;;;5099112;28;20119;-78
2023/03/16 02:04:05;;;;;;;1.67;1.10;;;;;;;;;;5116119;28;20028;-77
2023/03/16 02:06:31;;;;;;;1.00;0.90;;;;;;;;;;5116185;28;20030;-78
2023/03/16 02:08:56;;;;;;;2.33;1.00;;;;;;;;;;5081882;28;20118;-80
2023/03/16 02:11:22;;;;;;;2.75;1.30;;;;;;;;;;5098809;28;20022;-78
2023/03/16 02:13:47;;;;;;;5.15;1.23;;;;;;;;;;5098810;28;20034;-77
2023/03/16 02:16:18;;;;;;;1.30;1.00;;;;;;;;;;5115745;28;20024;-78
2023/03/16 02:18:46;;;;;;;3.38;1.25;;;;;;;;;;5099513;28;20110;-78
2023/03/16 02:21:24;;;;;;;1.83;0.98;;;;;;;;;;5099120;28;20108;-76
2023/03/16 02:23:50;;;;;;;1.70;1.13;;;;;;;;;;5117429;28;20037;-78
2023/03/16 02:26:44;;;;;;;1.58;1.00;;;;;;;;;;5099590;28;20023;-78
2023/03/16 02:29:18;;;;;;;2.42;1.00;;;;;;;;;;5116377;28;20093;-78
2023/03/16 02:31:43;;;;;;;1.35;1.00;;;;;;;;;;5116523;28;20019;-78
2023/03/16 02:34:09;;;;;;;2.58;1.23;;;;;;;;;;5099798;28;20498;-78
2023/03/16 02:36:35;;;;;;;1.85;1.40;;;;;;;;;;5099371;28;20058;-77
2023/03/16 02:39:00;;;;;;;2.95;1.00;;;;;;;;;;5090523;28;20104;-78
2023/03/16 02:41:26;;;;;;;1.50;1.02;;;;;;;;;;5126422;28;20028;-78
2023/03/16 02:43:57;;;;;;;2.30;1.30;;;;;;;;;;5126335;28;20110;-77
2023/03/16 02:46:24;;;;;;;3.25;1.08;;;;;;;;;;5128906;28;20528;-78
2023/03/16 02:49:04;;;;;;;2.70;0.85;;;;;;;;;;5110144;28;20029;-78
2023/03/16 02:51:31;;;;;;;2.65;1.00;;;;;;;;;;5123237;28;20059;-78
2023/03/16 02:53:56;;;;;;;1.60;1.17;;;;;;;;;;5098536;28;20028;-78
2023/03/16 02:56:22;;;;;;;2.17;1.30;;;;;;;;;;5115386;28;20023;-78
2023/03/16 02:58:47;;;;;;;2.00;1.13;;;;;;;;;;5097996;28;20020;-78
2023/03/16 03:01:13;;;;;;;2.03;1.10;;;;;;;;;;5114839;28;20058;-78
2023/03/16 03:03:38;;;;;;;2.35;1.40;;;;;;;;;;5114841;28;20032;-78
2023/03/16 03:06:04;;;;;;;2.75;1.35;;;;;;;;;;5114498;28;20023;-78
2023/03/16 03:08:31;;;;;;;1.65;0.95;;;;;;;;;;5097808;28;20597;-78
2023/03/16 03:10:57;;;;;;;2.20;1.02;;;;;;;;;;5116148;28;20172;-78
2023/03/16 03:13:23;;;;;;;1.63;0.80;;;;;;;;;;5081119;28;20023;-78
2023/03/16 03:15:48;;;;;;;1.10;0.82;;;;;;;;;;5097714;28;20026;-78
2023/03/16 03:18:14;;;;;;;0.77;0.70;;;;;;;;;;5080881;28;20015;-77
2023/03/16 03:20:39;;;;;;;2.63;1.20;;;;;;;;;;5115509;28;20023;-78
2023/03/16 03:23:05;;;;;;;1.58;1.00;;;;;;;;;;5114103;28;20028;-77
2023/03/16 03:25:33;;;;;;;1.02;0.80;;;;;;;;;;5115339;28;20102;-77
2023/03/16 03:27:59;;;;;;;0.63;0.63;;;;;;;;;;5114436;28;20019;-78
2023/03/16 03:30:26;;;;;;;0.82;0.60;;;;;;;;;;5097477;28;20047;-78
2023/03/16 03:32:51;;;;;;;1.63;0.90;;;;;;;;;;5114362;28;20023;-78
2023/03/16 03:35:17;;;;;;;2.15;1.48;;;;;;;;;;5097105;28;20020;-78
2023/03/16 03:37:45;;;;;;;1.98;1.00;;;;;;;;;;5114373;28;20027;-78
2023/03/16 03:40:12;;;;;;;1.35;1.08;;;;;;;;;;5097304;28;20056;-79
2023/03/16 03:42:38;;;;;;;1.25;0.90;;;;;;;;;;5097558;28;20024;-79
2023/03/16 03:45:04;;;;;;;1.58;0.73;;;;;;;;;;5097067;28;20459;-78
2023/03/16 03:47:30;;;;;;;0.70;0.60;;;;;;;;;;5115171;28;20026;-78
2023/03/16 03:49:55;;;;;;;0.40;0.40;;;;;;;;;;5096730;28;20015;-78
2023/03/16 03:52:21;;;;;;;1.02;0.60;;;;;;;;;;5114120;28;20024;-79
2023/03/16 03:54:46;;;;;;;0.82;0.60;;;;;;;;;;5114095;28;20122;-78
2023/03/16 03:57:12;;;;;;;0.52;0.50;;;;;;;;;;5115745;28;20027;-78
2023/03/16 03:59:42;;;;;;;3.10;1.15;;;;;;;;;;5113944;28;20034;-78
2023/03/16 04:02:08;;;;;;;1.38;0.60;;;;;;;;;;5115048;28;20020;-79
2023/03/16 04:04:34;;;;;;;0.40;0.40;;;;;;;;;;5113394;28;20139;-78
2023/03/16 04:06:59;;;;;;;0.88;0.60;;;;;;;;;;5096975;28;20114;-78
2023/03/16 04:09:25;;;;;;;1.98;0.55;;;;;;;;;;5096988;28;20024;-78
2023/03/16 04:11:50;;;;;;;1.17;0.90;;;;;;;;;;5113647;28;20023;-78
2023/03/16 04:14:16;;;;;;;1.15;0.60;;;;;;;;;;5096672;28;20019;-78
2023/03/16 04:16:43;;;;;;;1.02;0.60;;;;;;;;;;5097276;28;20409;-78
2023/03/16 04:19:10;;;;;;;0.40;0.40;;;;;;;;;;5096429;28;20423;-79
2023/03/16 04:21:35;;;;;;;1.50;0.90;;;;;;;;;;5096651;28;20023;-78
2023/03/16 04:24:03;;;;;;;2.50;1.33;;;;;;;;;;5114576;28;20069;-79
2023/03/16 04:26:30;;;;;;;1.45;0.98;;;;;;;;;;5114447;28;20058;-79
2023/03/16 04:28:55;;;;;;;1.25;0.82;;;;;;;;;;5113331;28;20077;-79
2023/03/16 04:31:21;;;;;;;0.80;0.80;;;;;;;;;;5113347;28;20027;-79
2023/03/16 04:33:46;;;;;;;2.00;1.10;;;;;;;;;;5114541;28;20020;-79
2023/03/16 04:36:12;;;;;;;2.75;1.30;;;;;;;;;;5113348;28;20036;-79
2023/03/16 04:38:37;;;;;;;2.92;1.30;;;;;;;;;;5114201;28;20027;-79
2023/03/16 04:41:03;;;;;;;5.88;2.17;;;;;;;;;;5079497;28;20040;-79
2023/03/16 04:43:29;;;;;;;2.58;1.13;;;;;;;;;;5096504;28;20032;-79
2023/03/16 04:45:54;;;;;;;2.78;1.20;;;;;;;;;;5113372;28;20087;-79
2023/03/16 04:48:20;;;;;;;3.60;1.48;;;;;;;;;;5112985;28;20034;-79
2023/03/16 04:50:47;;;;;;;6.22;2.00;;;;;;;;;;5096299;28;20499;-79
2023/03/16 04:53:12;;;;;;;6.43;2.28;;;;;;;;;;5096132;28;20032;-78
2023/03/16 04:55:37;;;;;;;6.85;2.38;;;;;;;;;;5096215;28;20027;-79
2023/03/16 04:58:03;;;;;;;7.38;3.40;;;;;;;;;;5114342;28;20028;-79
2023/03/16 05:00:28;;;;;;;5.90;2.97;;;;;;;;;;5096096;28;20035;-80
2023/03/16 05:02:55;;;;;;;4.60;2.00;;;;;;;;;;5095688;28;20027;-79
2023/03/16 05:05:20;;;;;;;2.65;1.50;;;;;;;;;;5112872;28;20377;-79
2023/03/16 05:07:46;;;;;;;2.13;1.48;;;;;;;;;;5095978;28;20028;-79
2023/03/16 05:10:13;;;;;;;2.30;1.30;;;;;;;;;;5112821;28;20498;-78
2023/03/16 05:12:39;;;;;;;2.20;1.52;;;;;;;;;;5113158;28;20118;-79
2023/03/16 05:15:05;;;;;;;3.85;1.95;;;;;;;;;;5111570;28;20196;-78
2023/03/16 05:17:31;;;;;;;3.80;2.28;;;;;;;;;;5095834;28;20143;-78
2023/03/16 05:19:56;;;;;;;4.70;2.35;;;;;;;;;;5112768;28;20027;-78
2023/03/16 05:22:22;;;;;;;12.15;3.35;;;;;;;;;;5095874;28;20098;-78
2023/03/16 05:24:47;;;;;;;8.82;2.63;;;;;;;;;;5113903;28;20020;-79
2023/03/16 05:27:13;;;;;;;4.40;2.20;;;;;;;;;;5078805;28;20114;-79
2023/03/16 05:29:39;;;;;;;4.72;2.15;;;;;;;;;;5112710;28;20031;-80
2023/03/16 05:32:05;;;;;;;2.60;1.65;;;;;;;;;;5110436;28;20028;-78
2023/03/16 05:34:31;;;;;;;3.45;1.40;;;;;;;;;;5111011;28;20036;-79
2023/03/16 05:36:56;;;;;;;3.05;1.50;;;;;;;;;;5111825;28;20028;-79
2023/03/16 05:39:22;;;;;;;2.72;1.40;;;;;;;;;;5113464;28;20043;-79
2023/03/16 05:41:47;;;;;;;2.70;1.10;;;;;;;;;;5112868;28;20689;-79
2023/03/16 05:44:13;;;;;;;2.53;1.60;;;;;;;;;;5094542;28;20073;-83
2023/03/16 05:46:38;;;;;;;3.05;1.90;;;;;;;;;;5091763;28;20039;-80
2023/03/16 05:49:04;;;;;;;3.72;1.80;;;;;;;;;;5091734;28;20315;-79
2023/03/16 05:51:29;;;;;;;5.43;1.60;;;;;;;;;;5114609;28;20024;-82
2023/03/16 05:53:55;;;;;;;4.03;1.50;;;;;;;;;;5114205;28;20104;-81
2023/03/16 05:56:23;;;;;;;2.75;1.60;;;;;;;;;;5110809;28;20019;-81
2023/03/16 05:58:54;;;;;;;2.95;2.00;;;;;;;;;;5111131;28;20053;-79
2023/03/16 06:01:19;;;;;;;2.75;1.75;;;;;;;;;;5113379;28;20088;-80
2023/03/16 06:03:46;;;;;;;4.40;2.22;;;;;;;;;;5113918;27;20043;-79
2023/03/16 06:06:23;;;;;;;13.45;4.20;;;;;;;;;;5105659;28;20046;-80
2023/03/16 06:08:48;;;;;;;5.80;3.10;;;;;;;;;;5109925;28;20024;-79
2023/03/16 06:11:15;;;;;;;7.20;3.13;;;;;;;;;;5113840;28;20441;-79
2023/03/16 06:13:40;;;;;;;10.68;5.82;;;;;;;;;;5091239;28;20058;-78
2023/03/16 06:16:06;;;;;;;20.67;9.02;;;;;;;;;;5107919;28;20032;-78
2023/03/16 06:18:33;;;;;;;14.23;5.00;;;;;;;;;;5110008;28;20055;-79
2023/03/16 06:21:04;;;;;;;20.15;6.70;;;;;;;;;;5113442;28;20039;-78
2023/03/16 06:23:29;;;;;;;23.42;6.78;;;;;;;;;;5096973;28;20051;-77
2023/03/16 06:25:55;;;;;;;12.48;5.53;;;;;;;;;;5112603;28;20264;-79
2023/03/16 06:28:21;;;;;;;8.43;4.30;;;;;;;;;;5111971;28;20181;-79
2023/03/16 06:30:47;;;;;;;11.80;2.20;;;;;;;;;;5115706;28;20461;-77
2023/03/16 06:33:18;;;;;;;1.85;1.42;;;;;;;;;;5113861;28;20026;-81
2023/03/16 06:35:45;;;;;;;4.32;1.98;;;;;;;;;;5099199;28;20026;-80
2023/03/16 06:38:10;;;;;;;10.90;1.98;;;;;;;;;;5115293;27;20052;-78
2023/03/16 06:40:36;;;;;;;2.40;1.63;;;;;;;;;;5117208;28;20079;-77
2023/03/16 06:43:01;;;;;;;2.25;1.80;;;;;;;;;;5113893;28;20632;-79
2023/03/16 06:45:28;;;;;;;6.45;2.03;;;;;;;;;;5114875;27;20126;-79
2023/03/16 06:48:00;;;;;;;14.10;3.45;;;;;;;;;;5105705;27;20031;-79
2023/03/16 06:50:27;;;;;;;9.32;2.10;;;;;;;;;;5109276;27;20096;-80
2023/03/16 06:52:52;;;;;;;6.03;1.98;;;;;;;;;;5109831;28;20031;-79
2023/03/16 06:55:18;;;;;;;6.32;2.20;;;;;;;;;;5113616;28;20350;-78
2023/03/16 06:57:43;;;;;;;9.43;4.45;;;;;;;;;;5109470;28;20096;-79
2023/03/16 07:00:10;;;;;;;8.57;3.53;;;;;;;;;;5107106;28;20035;-79
2023/03/16 07:02:38;;;;;;;15.35;5.78;;;;;;;;;;5110727;28;20441;-79
2023/03/16 07:05:04;;;;;;;19.67;10.25;;;;;;;;;;5106318;28;20118;-79
2023/03/16 07:07:30;;;;;;;12.57;3.47;;;;;;;;;;5107405;28;20477;-78
2023/03/16 07:09:55;;;;;;;8.15;2.50;;;;;;;;;;5111240;28;20214;-80
2023/03/16 07:12:21;;;;;;;11.68;4.03;;;;;;;;;;5114054;28;20015;-81
2023/03/16 07:14:47;;;;;;;9.25;3.88;;;;;;;;;;5111380;28;20049;-77
2023/03/16 07:17:12;;;;;;;9.68;2.88;;;;;;;;;;5116456;28;20059;-78
2023/03/16 07:19:38;;;;;;;9.77;2.65;;;;;;;;;;5110006;28;20043;-78
2023/03/16 07:22:03;;;;;;;5.50;2.35;;;;;;;;;;5106631;28;20636;-78
2023/03/16 07:24:29;;;;;;;12.45;3.08;;;;;;;;;;5113609;28;20023;-78
2023/03/16 07:26:55;;;;;;;9.50;2.85;;;;;;;;;;5110170;28;20123;-79
2023/03/16 07:29:20;;;;;;;10.43;3.28;;;;;;;;;;5112835;28;20190;-77
2023/03/16 07:31:47;;;;;;;11.00;2.70;;;;;;;;;;5112965;28;20023;-81
2023/03/16 07:34:13;;;;;;;9.50;2.80;;;;;;;;;;5118010;28;20072;-77
2023/03/16 07:36:38;;;;;;;6.50;2.70;;;;;;;;;;5083332;28;20023;-79
2023/03/16 07:39:05;;;;;;;20.58;3.85;;;;;;;;;;5113792;28;20051;-78
2023/03/16 07:41:30;;;;;;;6.95;3.92;;;;;;;;;;5114665;27;20046;-81
2023/03/16 07:43:57;;;;;;;5.75;2.95;;;;;;;;;;5112042;28;20023;-80
2023/03/16 07:46:23;;;;;;;5.45;2.67;;;;;;;;;;5111309;28;20016;-79
2023/03/16 07:48:49;;;;;;;11.65;6.70;;;;;;;;;;5097450;28;20031;-77
2023/03/16 07:51:26;;;;;;;15.55;8.32;;;;;;;;;;5112625;28;20028;-77
2023/03/16 07:53:52;;;;;;;17.40;3.85;;;;;;;;;;5096710;28;20036;-77
2023/03/16 07:56:18;;;;;;;11.48;3.10;;;;;;;;;;5108729;28;20028;-78
2023/03/16 07:58:43;;;;;;;6.88;2.67;;;;;;;;;;5110078;27;20027;-80
2023/03/16 08:01:10;;;;;;;9.13;2.97;;;;;;;;;;5108525;27;20147;-79
2023/03/16 08:03:36;;;;;;;9.27;3.42;;;;;;;;;;5108424;27;20019;-79
2023/03/16 08:06:03;;;;;;;5.53;3.10;;;;;;;;;;5115902;27;20102;-79
2023/03/16 08:08:28;;;;;;;7.18;3.08;;;;;;;;;;5130276;27;20023;-79
2023/03/16 08:10:54;;;;;;;8.50;3.00;;;;;;;;;;5115660;27;20039;-83
2023/03/16 08:13:21;;;;;;;7.93;2.90;;;;;;;;;;5110260;28;20119;-79
2023/03/16 08:15:57;;;;;;;7.65;3.17;;;;;;;;;;5092451;28;20116;-77
2023/03/16 08:18:26;;;;;;;8.95;3.08;;;;;;;;;;5109584;28;20032;-78
2023/03/16 08:20:59;;;;;;;23.63;6.10;;;;;;;;;;5102497;27;20093;-76
2023/03/16 08:23:39;;;;;;;12.30;5.90;;;;;;;;;;5126624;27;20104;-80
2023/03/16 08:26:07;;;;;;;8.00;4.88;;;;;;;;;;5113388;28;20019;-79
2023/03/16 08:28:39;;;;;;;17.80;10.63;;;;;;;;;;5114479;28;20035;-80
2023/03/16 08:31:06;;;;;;;16.50;7.13;;;;;;;;;;5120706;27;20478;-78
2023/03/16 08:33:31;;;;;;;11.95;5.25;;;;;;;;;;5112960;28;20081;-78
2023/03/16 08:35:57;;;;;;;12.85;5.57;;;;;;;;;;5107267;28;20036;-78
2023/03/16 08:38:24;;;;;;;12.35;3.97;;;;;;;;;;5110217;28;20126;-77
2023/03/16 08:40:49;;;;;;;10.25;3.97;;;;;;;;;;5111708;28;20056;-78
2023/03/16 08:43:15;;;;;;;10.52;4.93;;;;;;;;;;5113667;28;20035;-77
2023/03/16 08:45:44;;;;;;;8.77;3.67;;;;;;;;;;5114482;28;20066;-78
2023/03/16 08:48:11;;;;;;;9.82;4.68;;;;;;;;;;5112355;28;20082;-79
2023/03/16 08:50:42;;;;;;;11.07;4.40;;;;;;;;;;5111306;28;20024;-79
2023/03/16 08:53:08;;;;;;;14.70;4.38;;;;;;;;;;5107733;28;20032;-76
2023/03/16 08:55:40;;;;;;;10.23;3.47;;;;;;;;;;5108784;28;20051;-78
2023/03/16 08:58:12;;;;;;;30.17;8.02;;;;;;;;;;5104262;28;20077;-77
2023/03/16 09:00:47;;;;;;;15.82;4.50;;;;;;;;;;5088911;28;20189;-77
2023/03/16 09:03:16;;;;;;;17.50;6.65;;;;;;;;;;5103649;28;20086;-77
2023/03/16 09:05:41;;;;;;;22.27;5.85;;;;;;;;;;5120321;28;20426;-78
2023/03/16 09:08:07;;;;;;;13.05;4.90;;;;;;;;;;5103030;28;20040;-77
2023/03/16 09:10:34;;;;;;;40.38;16.73;;;;;;;;;;5096804;28;20163;-78
2023/03/16 09:12:59;;;;;;;11.68;5.20;;;;;;;;;;5096284;28;20463;-78
2023/03/16 09:15:25;;;;;;;14.90;8.10;;;;;;;;;;5087861;28;20028;-77
2023/03/16 09:17:52;;;;;;;20.13;7.38;;;;;;;;;;5090761;28;20613;-79
2023/03/16 09:20:18;;;;;;;11.20;4.00;;;;;;;;;;5118236;28;20380;-77
2023/03/16 09:22:44;;;;;;;11.73;3.58;;;;;;;;;;5114231;28;20097;-78
2023/03/16 09:25:10;;;;;;;11.52;4.00;;;;;;;;;;5112506;28;20096;-80
2023/03/16 09:27:35;;;;;;;13.95;4.97;;;;;;;;;;5107221;28;20434;-79
2023/03/16 09:30:03;;;;;;;11.50;3.70;;;;;;;;;;5115577;28;20121;-78
2023/03/16 09:32:32;;;;;;;11.10;3.40;;;;;;;;;;5103033;28;20036;-78
2023/03/16 09:34:58;;;;;;;7.55;3.70;;;;;;;;;;5112809;28;20075;-77
2023/03/16 09:37:24;;;;;;;9.85;4.43;;;;;;;;;;5109539;28;20031;-79
2023/03/16 09:39:52;;;;;;;12.88;4.35;;;;;;;;;;5121439;28;20211;-79
2023/03/16 09:42:37;;;;;;;11.65;4.13;;;;;;;;;;5120006;28;20043;-76
2023/03/16 09:45:21;;;;;;;14.68;4.15;;;;;;;;;;5115861;28;20024;-78
2023/03/16 09:47:47;;;;;;;25.95;4.88;;;;;;;;;;5110540;27;20043;-78
2023/03/16 09:50:35;;;;;;;24.15;9.57;;;;;;;;;;5104792;27;20024;-78
2023/03/16 09:53:20;;;;;;;14.82;5.80;;;;;;;;;;5094837;28;20034;-77
2023/03/16 09:55:48;;;;;;;17.88;5.50;;;;;;;;;;5100566;28;20063;-78
2023/03/16 09:58:19;;;;;;;12.10;5.88;;;;;;;;;;5113231;28;20023;-78
2023/03/16 10:00:53;;;;;;;87.90;32.38;;;;;;;;;;5114471;28;20119;-77
2023/03/16 10:04:00;;;;;;;17.92;5.35;;;;;;;;;;5113969;28;20031;-77
2023/03/16 10:06:26;;;;;;;12.68;6.03;;;;;;;;;;5084167;28;20055;-78
2023/03/16 10:09:16;;;;;;;41.78;20.55;;;;;;;;;;5091761;28;20480;-79
2023/03/16 10:11:45;;;;;;;;;;;;;;;;;;5108350;28;20116;-77
2023/03/16 10:14:27;;;;;;;15.30;5.35;;;;;;;;;;5112299;28;20018;-79
2023/03/16 10:17:19;;;;;;;15.95;6.70;;;;;;;;;;5093528;28;20084;-77
2023/03/16 10:19:58;;;;;;;18.85;6.65;;;;;;;;;;5093434;28;20039;-78
2023/03/16 10:22:28;;;;;;;16.63;5.55;;;;;;;;;;5095907;28;20081;-79
2023/03/16 10:25:02;;;;;;;12.95;5.10;;;;;;;;;;5079543;28;20527;-78
2023/03/16 10:27:30;;;;;;;13.70;6.50;;;;;;;;;;5096754;28;20016;-78
2023/03/16 10:29:55;;;;;;;15.77;6.22;;;;;;;;;;5114937;28;20104;-78
2023/03/16 10:32:23;;;;;;;11.15;4.45;;;;;;;;;;5114542;27;20408;-77
2023/03/16 10:35:01;;;;;;;16.05;6.05;;;;;;;;;;5096864;28;20027;-77
2023/03/16 10:37:27;;;;;;;13.40;5.15;;;;;;;;;;5114303;28;20031;-76
2023/03/16 10:39:53;;;;;;;19.92;5.18;;;;;;;;;;5090300;28;20078;-77
2023/03/16 10:42:20;;;;;;;14.02;6.03;;;;;;;;;;5115082;28;20046;-79
2023/03/16 10:44:58;;;;;;;11.20;6.07;;;;;;;;;;5085149;28;20020;-79
2023/03/16 10:47:27;;;;;;;9.60;4.05;;;;;;;;;;5115769;28;20061;-77
2023/03/16 10:49:54;;;;;;;15.73;6.57;;;;;;;;;;5096183;28;20023;-79
2023/03/16 10:52:42;;;;;;;9.13;4.72;;;;;;;;;;5116748;27;20091;-79
2023/03/16 10:55:23;;;;;;;9.50;3.67;;;;;;;;;;5114800;28;20372;-79
2023/03/16 10:57:50;;;;;;;15.88;6.63;;;;;;;;;;5113241;28;20027;-77
2023/03/16 11:00:23;;;;;;;14.52;6.35;;;;;;;;;;5113816;27;20035;-78
2023/03/16 11:02:50;;;;;;;14.30;5.65;;;;;;;;;;5095989;28;20027;-78
2023/03/16 11:05:18;;;;;;;23.45;6.93;;;;;;;;;;5110583;28;20043;-78
2023/03/16 11:08:00;;;;;;;10.32;4.80;;;;;;;;;;5112228;28;20035;-77
2023/03/16 11:10:33;;;;;;;17.05;5.22;;;;;;;;;;5075022;28;20531;-80
2023/03/16 11:13:05;;;;;;;16.73;4.63;;;;;;;;;;5075375;28;20452;-78
2023/03/16 11:15:39;;;;;;;12.15;4.90;;;;;;;;;;5107835;28;20023;-79
2023/03/16 11:18:05;;;;;;;14.13;5.82;;;;;;;;;;5110356;28;20032;-78
2023/03/16 11:20:31;;;;;;;24.38;6.47;;;;;;;;;;5093018;28;20042;-79
2023/03/16 11:22:57;;;;;;;20.48;7.50;;;;;;;;;;5093897;28;20437;-80
2023/03/16 11:25:27;;;;;;;20.15;7.10;;;;;;;;;;5109588;28;20020;-79
2023/03/16 11:27:53;;;;;;;27.33;7.70;;;;;;;;;;5118503;27;20035;-78
2023/03/16 11:30:39;;;;;;;17.25;6.38;;;;;;;;;;5113989;28;20369;-77
2023/03/16 11:33:08;;;;;;;18.45;6.03;;;;;;;;;;5111729;28;20023;-78
2023/03/16 11:35:57;;;;;;;31.33;8.98;;;;;;;;;;5093059;28;20031;-80
2023/03/16 11:38:45;;;;;;;21.98;8.30;;;;;;;;;;5123002;27;20024;-79
2023/03/16 11:41:18;;;;;;;14.88;7.00;;;;;;;;;;5120275;27;20111;-81
2023/03/16 11:43:57;;;;;;;13.63;7.20;;;;;;;;;;5093981;28;20381;-79
2023/03/16 11:46:35;;;;;;;13.80;6.45;;;;;;;;;;5109885;28;20081;-77
2023/03/16 11:49:19;;;;;;;14.38;6.72;;;;;;;;;;5093622;28;20023;-81
2023/03/16 11:51:45;;;;;;;22.75;7.95;;;;;;;;;;5112954;27;20031;-79
2023/03/16 11:54:48;;;;;;;25.92;9.88;;;;;;;;;;5123838;27;20031;-79
2023/03/16 11:57:30;;;;;;;18.85;8.32;;;;;;;;;;5111196;27;20031;-77
2023/03/16 12:00:14;;;;;;;25.98;9.68;;;;;;;;;;5104187;28;20032;-80
2023/03/16 12:03:42;;;;;;;25.95;10.25;;;;;;;;;;5110383;28;20023;-78
2023/03/16 12:06:19;;;;;;;25.80;9.52;;;;;;;;;;5117245;27;20387;-77
2023/03/16 12:09:03;;;;;;;17.08;8.75;;;;;;;;;;5117294;27;20460;-77
2023/03/16 12:11:58;;;;;;;22.98;9.38;;;;;;;;;;5107524;28;20097;-78
2023/03/16 12:15:05;;;;;;;15.70;7.78;;;;;;;;;;5091897;28;20119;-78
2023/03/16 12:17:36;;;;;;;20.73;9.82;;;;;;;;;;5066993;28;20135;-79
2023/03/16 12:20:25;;;;;;;20.52;8.60;;;;;;;;;;5106971;27;20031;-77
2023/03/16 12:22:59;;;;;;;15.05;8.27;;;;;;;;;;5103001;28;20051;-78
2023/03/16 12:25:30;;;;;;;19.98;8.23;;;;;;;;;;5113203;27;20028;-77
2023/03/16 12:27:57;;;;;;;27.50;9.75;;;;;;;;;;5091430;28;20134;-78
2023/03/16 12:30:24;;;;;;;25.02;9.18;;;;;;;;;;5108472;28;20039;-77
2023/03/16 12:33:12;;;;;;;24.50;9.32;;;;;;;;;;5108816;28;20059;-78
2023/03/16 12:35:45;;;;;;;23.55;10.80;;;;;;;;;;5086524;28;20533;-78
2023/03/16 12:38:29;;;;;;;19.40;10.05;;;;;;;;;;5090415;28;20023;-78
2023/03/16 12:41:09;;;;;;;25.58;9.80;;;;;;;;;;5108767;28;20047;-79
2023/03/16 12:44:19;;;;;;;20.33;9.13;;;;;;;;;;5107953;28;20621;-78
2023/03/16 12:47:03;;;;;;;20.60;9.43;;;;;;;;;;5101749;28;20074;-80
2023/03/16 12:49:31;;;;;;;24.98;12.40;;;;;;;;;;5108183;28;20074;-78
2023/03/16 12:52:04;;;;;;;31.00;15.30;;;;;;;;;;5125703;27;20035;-80
2023/03/16 12:54:30;;;;;;;24.58;11.30;;;;;;;;;;5111204;28;20028;-78
2023/03/16 12:57:05;;;;;;;30.13;14.38;;;;;;;;;;5111787;28;20114;-80
2023/03/16 12:59:42;;;;;;;19.45;9.07;;;;;;;;;;5131779;27;20447;-79
2023/03/16 13:02:16;;;;;;;28.65;10.93;;;;;;;;;;5114758;28;20510;-80
2023/03/16 13:04:43;;;;;;;30.42;13.68;;;;;;;;;;5115107;28;20115;-79
2023/03/16 13:07:20;;;;;;;24.73;11.82;;;;;;;;;;5099132;28;20028;-78
2023/03/16 13:09:51;;;;;;;29.35;12.73;;;;;;;;;;5133150;27;20054;-79
2023/03/16 13:12:27;;;;;;;24.20;10.50;;;;;;;;;;5121206;27;20633;-78
2023/03/16 13:14:56;;;;;;;19.38;9.27;;;;;;;;;;5116532;28;20119;-80
2023/03/16 13:17:29;;;;;;;23.77;11.55;;;;;;;;;;5117840;28;20027;-79
2023/03/16 13:20:22;;;;;;;24.17;11.65;;;;;;;;;;5100035;28;20100;-79
2023/03/16 13:22:50;;;;;;;20.30;9.50;;;;;;;;;;5151053;27;20027;-80
2023/03/16 13:25:21;;;;;;;16.17;8.60;;;;;;;;;;5116466;28;20024;-78
2023/03/16 13:27:48;;;;;;;20.00;9.73;;;;;;;;;;5118054;28;20039;-78
2023/03/16 13:30:15;;;;;;;24.73;9.77;;;;;;;;;;5115974;28;20077;-79
2023/03/16 13:32:41;;;;;;;18.55;9.50;;;;;;;;;;5116633;28;20115;-82
2023/03/16 13:35:08;;;;;;;18.08;9.75;;;;;;;;;;5116457;28;20453;-81
2023/03/16 13:37:34;;;;;;;11.10;6.72;;;;;;;;;;5116246;28;20023;-81
2023/03/16 13:40:00;;;;;;;22.67;7.80;;;;;;;;;;5099062;28;20052;-78
2023/03/16 13:42:31;;;;;;;18.10;7.50;;;;;;;;;;5099841;28;20023;-78
2023/03/16 13:44:57;;;;;;;17.45;8.02;;;;;;;;;;5116188;28;20027;-78
2023/03/16 13:47:25;;;;;;;21.48;8.60;;;;;;;;;;5099928;28;20024;-80
2023/03/16 13:49:59;;;;;;;22.52;9.82;;;;;;;;;;5116083;28;20064;-77
2023/03/16 13:52:28;;;;;;;16.35;8.73;;;;;;;;;;5114882;28;20399;-79
2023/03/16 13:54:54;;;;;;;17.42;7.97;;;;;;;;;;5099269;28;20019;-79
2023/03/16 13:57:22;;;;;;;13.68;8.00;;;;;;;;;;5082408;28;20114;-80
2023/03/16 13:59:47;;;;;;;21.45;10.32;;;;;;;;;;5082395;28;20123;-79
2023/03/16 14:02:17;;;;;;;16.90;8.02;;;;;;;;;;5115931;28;20110;-79
2023/03/16 14:04:43;;;;;;;16.92;6.55;;;;;;;;;;5099689;28;20027;-79
2023/03/16 14:07:16;;;;;;;35.50;15.18;;;;;;;;;;5115531;28;20030;-79
2023/03/16 14:09:42;;;;;;;14.98;7.50;;;;;;;;;;5115601;28;20027;-80
2023/03/16 14:12:17;;;;;;;19.45;8.98;;;;;;;;;;5097789;28;20035;-79
2023/03/16 14:14:48;;;;;;;18.10;8.90;;;;;;;;;;5098630;28;20077;-79
2023/03/16 14:17:16;;;;;;;31.27;17.90;;;;;;;;;;5082592;28;20415;-79
2023/03/16 14:19:45;;;;;;;19.70;11.70;;;;;;;;;;5131310;27;20027;-79
2023/03/16 14:22:12;;;;;;;20.25;9.85;;;;;;;;;;5131121;27;20058;-78
2023/03/16 14:24:41;;;;;;;42.00;21.38;;;;;;;;;;5097077;28;20370;-78
2023/03/16 14:27:16;;;;;;;17.67;9.38;;;;;;;;;;5080895;28;20412;-79
2023/03/16 14:29:42;;;;;;;15.00;7.43;;;;;;;;;;5096900;28;20352;-78
2023/03/16 14:32:25;;;;;;;15.68;8.00;;;;;;;;;;5096802;28;20022;-79
2023/03/16 14:34:51;;;;;;;20.20;9.23;;;;;;;;;;5098355;28;20031;-79
2023/03/16 14:37:18;;;;;;;23.80;11.32;;;;;;;;;;5116961;28;20410;-78
2023/03/16 14:39:44;;;;;;;26.05;11.15;;;;;;;;;;5115114;28;20027;-79
2023/03/16 14:42:27;;;;;;;21.80;10.98;;;;;;;;;;5115252;28;20034;-78
2023/03/16 14:44:53;;;;;;;19.48;8.43;;;;;;;;;;5115066;28;20098;-79
2023/03/16 14:47:27;;;;;;;27.95;16.20;;;;;;;;;;5116343;28;20031;-78
2023/03/16 14:49:52;;;;;;;19.10;9.18;;;;;;;;;;5115520;27;20038;-79